createdAt,value
2023-05-10T00:00:45.439Z,13.59
2023-05-10T00:01:45.405Z,13.59
2023-05-10T00:02:45.470Z,13.54
2023-05-10T00:03:45.497Z,13.54
2023-05-10T00:04:45.371Z,13.60
2023-05-10T00:05:45.661Z,13.64
2023-05-10T00:06:45.347Z,13.63
2023-05-10T00:07:45.329Z,13.63
2023-05-10T00:08:45.299Z,13.59
2023-05-10T00:09:45.295Z,13.55
2023-05-10T00:10:45.296Z,13.51
2023-05-10T00:11:45.256Z,13.45
2023-05-10T00:12:45.256Z,13.39
2023-05-10T00:13:45.216Z,13.32
2023-05-10T00:14:45.226Z,13.28
2023-05-10T00:15:45.232Z,13.28
2023-05-10T00:16:45.240Z,13.26
2023-05-10T00:17:45.212Z,13.29
2023-05-10T00:18:45.181Z,13.29
2023-05-10T00:19:45.203Z,13.28
2023-05-10T00:20:45.153Z,13.25
2023-05-10T00:21:45.138Z,13.23
2023-05-10T00:22:45.097Z,13.23
2023-05-10T00:23:45.224Z,13.20
2023-05-10T00:24:45.086Z,13.20
2023-05-10T00:25:45.079Z,13.17
2023-05-10T00:26:45.036Z,13.12
2023-05-10T00:27:45.046Z,13.07
2023-05-10T00:28:45.028Z,13.04
2023-05-10T00:29:45.030Z,13.01
2023-05-10T00:30:45.008Z,13.03
2023-05-10T00:31:45.030Z,13.22
2023-05-10T00:32:45.002Z,13.29
2023-05-10T00:33:44.987Z,13.32
2023-05-10T00:34:44.950Z,13.30
2023-05-10T00:35:44.934Z,13.36
2023-05-10T00:36:44.919Z,13.48
2023-05-10T00:37:44.918Z,13.54
2023-05-10T00:38:44.932Z,13.57
2023-05-10T00:39:44.878Z,13.62
2023-05-10T00:40:44.878Z,13.64
2023-05-10T00:41:44.865Z,13.64
2023-05-10T00:42:44.831Z,13.63
2023-05-10T00:43:44.856Z,13.62
2023-05-10T00:44:44.819Z,13.60
2023-05-10T00:45:44.866Z,13.59
2023-05-10T00:46:44.783Z,13.52
2023-05-10T00:47:45.182Z,13.57
2023-05-10T00:48:44.799Z,13.59
2023-05-10T00:49:44.752Z,13.57
2023-05-10T00:50:44.737Z,13.55
2023-05-10T00:51:44.769Z,13.49
2023-05-10T00:52:44.722Z,13.49
2023-05-10T00:53:44.734Z,13.49
2023-05-10T00:54:44.670Z,13.46
2023-05-10T00:55:44.692Z,13.39
2023-05-10T00:56:44.671Z,13.28
2023-05-10T00:57:44.663Z,13.22
2023-05-10T00:58:44.638Z,13.33
2023-05-10T00:59:44.630Z,13.48
2023-05-10T01:00:44.593Z,13.54
2023-05-10T01:01:44.625Z,13.59
2023-05-10T01:02:44.702Z,13.67
2023-05-10T01:03:44.590Z,13.73
2023-05-10T01:04:44.622Z,13.78
2023-05-10T01:05:44.543Z,13.79
2023-05-10T01:06:44.531Z,13.78
2023-05-10T01:07:44.523Z,13.77
2023-05-10T01:08:44.534Z,13.77
2023-05-10T01:09:44.488Z,13.71
2023-05-10T01:10:44.470Z,13.71
2023-05-10T01:11:44.537Z,13.66
2023-05-10T01:12:44.516Z,13.62
2023-05-10T01:13:44.473Z,13.51
2023-05-10T01:14:44.446Z,13.42
2023-05-10T01:15:44.501Z,13.33
2023-05-10T01:16:44.427Z,13.25
2023-05-10T01:17:44.475Z,13.17
2023-05-10T01:18:44.430Z,13.11
2023-05-10T01:19:44.390Z,13.07
2023-05-10T01:20:44.360Z,13.00
2023-05-10T01:21:44.356Z,12.92
2023-05-10T01:22:44.319Z,12.86
2023-05-10T01:23:44.321Z,12.83
2023-05-10T01:24:44.285Z,12.83
2023-05-10T01:25:44.311Z,12.82
2023-05-10T01:26:44.282Z,12.85
2023-05-10T01:27:44.254Z,12.83
2023-05-10T01:28:44.243Z,12.83
2023-05-10T01:29:44.231Z,12.78
2023-05-10T01:30:44.229Z,12.72
2023-05-10T01:31:44.303Z,12.77
2023-05-10T01:32:44.250Z,12.78
2023-05-10T01:33:44.186Z,12.74
2023-05-10T01:34:44.169Z,12.70
2023-05-10T01:35:45.193Z,12.64
2023-05-10T01:36:44.145Z,12.53
2023-05-10T01:37:44.121Z,12.49
2023-05-10T01:38:44.128Z,12.41
2023-05-10T01:39:44.089Z,12.38
2023-05-10T01:40:44.087Z,12.34
2023-05-10T01:41:44.099Z,12.28
2023-05-10T01:42:44.077Z,12.23
2023-05-10T01:43:44.063Z,12.19
2023-05-10T01:44:44.037Z,12.31
2023-05-10T01:45:44.027Z,12.41
2023-05-10T01:46:44.093Z,12.50
2023-05-10T01:47:44.025Z,12.56
2023-05-10T01:48:43.975Z,12.57
2023-05-10T01:49:43.993Z,12.59
2023-05-10T01:50:43.960Z,12.60
2023-05-10T01:51:43.967Z,12.67
2023-05-10T01:52:43.932Z,12.68
2023-05-10T01:53:44.017Z,12.74
2023-05-10T01:54:43.904Z,12.89
2023-05-10T01:55:43.879Z,12.97
2023-05-10T01:56:43.871Z,13.14
2023-05-10T01:57:43.846Z,13.25
2023-05-10T01:58:43.831Z,13.29
2023-05-10T01:59:43.829Z,13.29
2023-05-10T02:00:43.850Z,13.30
2023-05-10T02:01:43.809Z,13.29
2023-05-10T02:02:43.821Z,13.44
2023-05-10T02:03:43.848Z,13.49
2023-05-10T02:04:43.799Z,13.57
2023-05-10T02:05:43.737Z,13.57
2023-05-10T02:06:43.727Z,13.57
2023-05-10T02:07:43.722Z,13.57
2023-05-10T02:08:43.712Z,13.54
2023-05-10T02:09:43.707Z,13.49
2023-05-10T02:10:43.684Z,13.49
2023-05-10T02:11:43.661Z,13.52
2023-05-10T02:12:43.720Z,13.55
2023-05-10T02:13:43.657Z,13.55
2023-05-10T02:14:43.707Z,13.54
2023-05-10T02:15:43.606Z,13.46
2023-05-10T02:16:43.622Z,13.39
2023-05-10T02:17:43.653Z,13.30
2023-05-10T02:18:43.614Z,13.23
2023-05-10T02:19:43.573Z,13.17
2023-05-10T02:20:43.563Z,13.10
2023-05-10T02:21:43.554Z,13.00
2023-05-10T02:22:43.535Z,12.90
2023-05-10T02:23:43.565Z,12.85
2023-05-10T02:24:43.494Z,12.79
2023-05-10T02:25:43.487Z,12.75
2023-05-10T02:26:43.466Z,12.65
2023-05-10T02:27:43.476Z,12.59
2023-05-10T02:28:43.464Z,12.53
2023-05-10T02:29:43.434Z,12.46
2023-05-10T02:30:43.420Z,12.39
2023-05-10T02:31:43.516Z,12.32
2023-05-10T02:32:43.448Z,12.27
2023-05-10T02:33:43.421Z,12.20
2023-05-10T02:34:43.391Z,12.14
2023-05-10T02:35:43.391Z,12.04
2023-05-10T02:36:43.348Z,11.99
2023-05-10T02:37:43.404Z,11.94
2023-05-10T02:38:43.320Z,11.85
2023-05-10T02:39:43.304Z,11.79
2023-05-10T02:40:43.294Z,11.76
2023-05-10T02:41:43.261Z,11.72
2023-05-10T02:42:43.295Z,11.69
2023-05-10T02:43:43.258Z,11.67
2023-05-10T02:44:43.233Z,11.64
2023-05-10T02:45:43.269Z,11.60
2023-05-10T02:46:43.221Z,11.61
2023-05-10T02:47:43.238Z,11.60
2023-05-10T02:48:43.183Z,11.55
2023-05-10T02:49:43.166Z,11.57
2023-05-10T02:50:43.151Z,11.54
2023-05-10T02:51:43.158Z,11.54
2023-05-10T02:52:43.136Z,11.51
2023-05-10T02:53:43.102Z,11.47
2023-05-10T02:54:43.094Z,11.46
2023-05-10T02:55:43.104Z,11.44
2023-05-10T02:56:43.125Z,11.42
2023-05-10T02:57:43.078Z,11.36
2023-05-10T02:58:43.054Z,11.35
2023-05-10T02:59:43.059Z,11.35
2023-05-10T03:00:43.053Z,11.28
2023-05-10T03:01:43.063Z,11.28
2023-05-10T03:02:43.115Z,11.27
2023-05-10T03:03:42.982Z,11.24
2023-05-10T03:04:43.001Z,11.21
2023-05-10T03:05:42.972Z,11.19
2023-05-10T03:06:42.958Z,11.14
2023-05-10T03:07:42.951Z,11.10
2023-05-10T03:08:42.950Z,11.10
2023-05-10T03:09:42.903Z,11.09
2023-05-10T03:10:42.923Z,11.09
2023-05-10T03:11:42.897Z,11.07
2023-05-10T03:12:42.928Z,11.06
2023-05-10T03:13:42.847Z,11.04
2023-05-10T03:14:42.853Z,11.04
2023-05-10T03:15:42.877Z,11.04
2023-05-10T03:16:44.772Z,11.07
2023-05-10T03:17:42.846Z,11.07
2023-05-10T03:18:42.847Z,11.07
2023-05-10T03:19:42.796Z,11.09
2023-05-10T03:20:42.779Z,11.10
2023-05-10T03:21:42.750Z,11.11
2023-05-10T03:22:42.757Z,11.14
2023-05-10T03:23:42.728Z,11.14
2023-05-10T03:24:42.725Z,11.17
2023-05-10T03:25:42.683Z,11.18
2023-05-10T03:26:42.693Z,11.19
2023-05-10T03:27:42.690Z,11.21
2023-05-10T03:28:42.680Z,11.21
2023-05-10T03:29:42.662Z,11.18
2023-05-10T03:30:42.626Z,11.19
2023-05-10T03:31:42.633Z,11.19
2023-05-10T03:32:42.653Z,11.19
2023-05-10T03:33:42.594Z,11.18
2023-05-10T03:34:42.629Z,11.21
2023-05-10T03:35:42.574Z,11.19
2023-05-10T03:36:42.559Z,11.22
2023-05-10T03:37:42.548Z,11.21
2023-05-10T03:38:42.549Z,11.21
2023-05-10T03:39:42.521Z,11.22
2023-05-10T03:40:42.492Z,11.25
2023-05-10T03:41:42.512Z,11.28
2023-05-10T03:42:42.502Z,11.28
2023-05-10T03:43:42.510Z,11.29
2023-05-10T03:44:42.484Z,11.32
2023-05-10T03:45:42.428Z,11.29
2023-05-10T03:46:42.470Z,11.28
2023-05-10T03:47:42.434Z,11.28
2023-05-10T03:48:42.419Z,11.33
2023-05-10T03:49:42.374Z,11.36
2023-05-10T03:50:42.372Z,11.37
2023-05-10T03:51:42.366Z,11.40
2023-05-10T03:52:42.381Z,11.39
2023-05-10T03:53:42.327Z,11.40
2023-05-10T03:54:42.328Z,11.39
2023-05-10T03:55:42.314Z,11.39
2023-05-10T03:56:42.356Z,11.42
2023-05-10T03:57:42.286Z,11.42
2023-05-10T03:58:42.285Z,11.46
2023-05-10T03:59:42.304Z,11.46
2023-05-10T04:00:42.267Z,11.47
2023-05-10T04:01:42.254Z,11.47
2023-05-10T04:02:42.353Z,11.47
2023-05-10T04:03:42.368Z,11.49
2023-05-10T04:04:42.239Z,11.52
2023-05-10T04:05:42.199Z,11.57
2023-05-10T04:06:42.214Z,11.61
2023-05-10T04:07:42.172Z,11.62
2023-05-10T04:08:42.169Z,11.65
2023-05-10T04:09:42.120Z,11.69
2023-05-10T04:10:42.159Z,11.72
2023-05-10T04:11:42.134Z,11.75
2023-05-10T04:12:42.176Z,11.79
2023-05-10T04:13:42.074Z,11.82
2023-05-10T04:14:42.123Z,11.85
2023-05-10T04:15:42.109Z,11.90
2023-05-10T04:16:42.136Z,11.94
2023-05-10T04:17:42.157Z,11.98
2023-05-10T04:18:42.021Z,12.02
2023-05-10T04:19:41.998Z,12.04
2023-05-10T04:20:41.970Z,12.12
2023-05-10T04:21:41.972Z,12.16
2023-05-10T04:22:41.974Z,12.21
2023-05-10T04:23:42.068Z,12.24
2023-05-10T04:24:42.071Z,12.29
2023-05-10T04:25:42.039Z,12.34
2023-05-10T04:26:41.954Z,12.38
2023-05-10T04:27:41.899Z,12.42
2023-05-10T04:28:41.926Z,12.46
2023-05-10T04:29:41.924Z,12.49
2023-05-10T04:30:41.864Z,12.54
2023-05-10T04:31:41.820Z,12.54
2023-05-10T04:32:41.907Z,12.57
2023-05-10T04:33:41.826Z,12.56
2023-05-10T04:34:41.796Z,12.59
2023-05-10T04:35:41.778Z,12.62
2023-05-10T04:36:41.770Z,12.64
2023-05-10T04:37:41.767Z,12.62
2023-05-10T04:38:41.839Z,12.65
2023-05-10T04:39:42.487Z,12.67
2023-05-10T04:40:41.711Z,12.67
2023-05-10T04:41:41.719Z,12.67
2023-05-10T04:42:41.709Z,12.71
2023-05-10T04:43:41.698Z,12.70
2023-05-10T04:44:41.687Z,12.72
2023-05-10T04:45:41.689Z,12.75
2023-05-10T04:46:41.732Z,12.78
2023-05-10T04:47:41.827Z,12.79
2023-05-10T04:48:41.669Z,12.82
2023-05-10T04:49:41.598Z,12.83
2023-05-10T04:50:41.580Z,12.83
2023-05-10T04:51:41.596Z,12.85
2023-05-10T04:52:41.598Z,12.83
2023-05-10T04:53:44.567Z,12.85
2023-05-10T04:54:42.542Z,12.86
2023-05-10T04:55:41.545Z,12.87
2023-05-10T04:56:41.541Z,12.89
2023-05-10T04:57:41.512Z,12.89
2023-05-10T04:58:41.455Z,12.92
2023-05-10T04:59:41.489Z,12.90
2023-05-10T05:00:41.450Z,12.92
2023-05-10T05:01:41.488Z,12.93
2023-05-10T05:02:41.469Z,12.93
2023-05-10T05:03:41.491Z,12.93
2023-05-10T05:04:41.402Z,12.93
2023-05-10T05:05:41.374Z,12.93
2023-05-10T05:06:41.408Z,12.95
2023-05-10T05:07:41.353Z,12.93
2023-05-10T05:08:41.335Z,12.93
2023-05-10T05:09:41.353Z,12.93
2023-05-10T05:10:41.347Z,12.90
2023-05-10T05:11:41.320Z,12.90
2023-05-10T05:12:41.298Z,12.90
2023-05-10T05:13:41.261Z,12.90
2023-05-10T05:14:41.270Z,12.90
2023-05-10T05:15:41.325Z,12.89
2023-05-10T05:16:41.329Z,12.90
2023-05-10T05:17:41.248Z,12.87
2023-05-10T05:18:41.211Z,12.90
2023-05-10T05:19:41.201Z,12.89
2023-05-10T05:20:41.182Z,12.89
2023-05-10T05:21:41.171Z,12.87
2023-05-10T05:22:41.143Z,12.89
2023-05-10T05:23:41.132Z,12.87
2023-05-10T05:24:41.132Z,12.87
2023-05-10T05:25:41.121Z,12.86
2023-05-10T05:26:41.098Z,12.83
2023-05-10T05:27:41.068Z,12.85
2023-05-10T05:28:41.059Z,12.85
2023-05-10T05:29:41.072Z,12.83
2023-05-10T05:30:41.045Z,12.83
2023-05-10T05:31:41.067Z,12.83
2023-05-10T05:32:41.064Z,12.85
2023-05-10T05:33:41.006Z,12.86
2023-05-10T05:34:41.126Z,12.87
2023-05-10T05:35:40.984Z,12.89
2023-05-10T05:36:41.007Z,12.89
2023-05-10T05:37:40.956Z,12.87
2023-05-10T05:38:41.012Z,12.86
2023-05-10T05:39:40.945Z,12.85
2023-05-10T05:40:40.923Z,12.83
2023-05-10T05:41:40.896Z,12.82
2023-05-10T05:42:40.901Z,12.82
2023-05-10T05:43:40.870Z,12.82
2023-05-10T05:44:40.889Z,12.78
2023-05-10T05:45:40.854Z,12.82
2023-05-10T05:46:40.842Z,12.82
2023-05-10T05:47:40.932Z,12.79
2023-05-10T05:48:48.370Z,12.83
2023-05-10T05:49:40.809Z,12.82
2023-05-10T05:50:40.777Z,12.82
2023-05-10T05:51:40.748Z,12.83
2023-05-10T05:52:40.753Z,12.85
2023-05-10T05:53:40.736Z,12.87
2023-05-10T05:54:40.737Z,12.90
2023-05-10T05:55:40.703Z,12.93
2023-05-10T05:56:40.702Z,12.97
2023-05-10T05:57:40.696Z,13.01
2023-05-10T05:58:40.686Z,13.03
2023-05-10T05:59:40.666Z,13.05
2023-05-10T06:00:40.641Z,13.11
2023-05-10T06:01:40.665Z,13.17
2023-05-10T06:02:40.722Z,13.19
2023-05-10T06:03:40.685Z,13.19
2023-05-10T06:04:41.577Z,13.15
2023-05-10T06:05:40.577Z,13.14
2023-05-10T06:06:40.598Z,13.14
2023-05-10T06:07:40.567Z,13.14
2023-05-10T06:08:40.549Z,13.14
2023-05-10T06:09:40.530Z,13.15
2023-05-10T06:10:40.513Z,13.14
2023-05-10T06:11:40.502Z,13.14
2023-05-10T06:12:40.502Z,13.14
2023-05-10T06:13:40.498Z,13.15
2023-05-10T06:14:40.452Z,13.17
2023-05-10T06:15:42.252Z,13.14
2023-05-10T06:16:40.507Z,13.10
2023-05-10T06:17:40.449Z,13.11
2023-05-10T06:18:40.447Z,13.12
2023-05-10T06:19:40.410Z,13.07
2023-05-10T06:20:40.397Z,13.10
2023-05-10T06:21:40.361Z,13.17
2023-05-10T06:22:40.446Z,13.17
2023-05-10T06:23:40.464Z,13.22
2023-05-10T06:24:40.436Z,13.15
2023-05-10T06:25:40.443Z,13.15
2023-05-10T06:26:40.443Z,13.23
2023-05-10T06:27:40.311Z,13.32
2023-05-10T06:28:40.280Z,13.38
2023-05-10T06:29:40.294Z,13.46
2023-05-10T06:30:40.258Z,13.51
2023-05-10T06:31:40.341Z,13.54
2023-05-10T06:32:40.267Z,13.52
2023-05-10T06:33:40.216Z,13.57
2023-05-10T06:34:40.245Z,13.64
2023-05-10T06:35:40.240Z,13.71
2023-05-10T06:36:40.184Z,13.82
2023-05-10T06:37:40.173Z,13.91
2023-05-10T06:38:40.136Z,13.99
2023-05-10T06:39:40.153Z,14.00
2023-05-10T06:40:40.102Z,14.02
2023-05-10T06:41:40.141Z,14.04
2023-05-10T06:42:40.136Z,14.02
2023-05-10T06:43:40.080Z,13.99
2023-05-10T06:44:40.070Z,13.95
2023-05-10T06:45:40.053Z,13.88
2023-05-10T06:46:40.087Z,13.84
2023-05-10T06:47:40.080Z,13.71
2023-05-10T06:48:40.014Z,13.66
2023-05-10T06:49:39.999Z,13.63
2023-05-10T06:50:40.069Z,13.63
2023-05-10T06:51:39.975Z,13.60
2023-05-10T06:52:39.956Z,13.55
2023-05-10T06:53:39.963Z,13.54
2023-05-10T06:54:39.941Z,13.49
2023-05-10T06:55:39.929Z,13.49
2023-05-10T06:56:39.899Z,13.48
2023-05-10T06:57:39.889Z,13.44
2023-05-10T06:58:39.923Z,13.38
2023-05-10T06:59:39.861Z,13.30
2023-05-10T07:00:39.882Z,13.23
2023-05-10T07:01:39.874Z,13.22
2023-05-10T07:02:39.857Z,13.20
2023-05-10T07:03:39.814Z,13.20
2023-05-10T07:04:39.860Z,13.17
2023-05-10T07:05:39.908Z,13.11
2023-05-10T07:06:39.770Z,13.12
2023-05-10T07:07:39.763Z,13.14
2023-05-10T07:08:39.743Z,13.15
2023-05-10T07:09:39.725Z,13.17
2023-05-10T07:10:39.715Z,13.14
2023-05-10T07:11:39.689Z,13.19
2023-05-10T07:12:39.774Z,13.14
2023-05-10T07:13:39.698Z,13.10
2023-05-10T07:14:39.656Z,13.12
2023-05-10T07:15:39.649Z,13.19
2023-05-10T07:16:39.706Z,13.23
2023-05-10T07:17:40.200Z,13.25
2023-05-10T07:18:39.621Z,13.15
2023-05-10T07:19:39.597Z,13.10
2023-05-10T07:20:39.569Z,13.07
2023-05-10T07:21:39.575Z,13.12
2023-05-10T07:22:39.581Z,13.12
2023-05-10T07:23:39.545Z,13.14
2023-05-10T07:24:39.509Z,13.17
2023-05-10T07:25:39.532Z,13.20
2023-05-10T07:26:39.511Z,13.23
2023-05-10T07:27:39.499Z,13.25
2023-05-10T07:28:39.462Z,13.30
2023-05-10T07:29:39.458Z,13.32
2023-05-10T07:30:39.534Z,13.32
2023-05-10T07:31:39.482Z,13.30
2023-05-10T07:32:39.495Z,13.23
2023-05-10T07:33:39.395Z,13.17
2023-05-10T07:34:39.394Z,13.12
2023-05-10T07:35:39.384Z,13.15
2023-05-10T07:36:39.375Z,13.19
2023-05-10T07:37:39.339Z,13.22
2023-05-10T07:38:40.928Z,13.29
2023-05-10T07:39:39.328Z,13.33
2023-05-10T07:40:39.313Z,13.36
2023-05-10T07:41:39.284Z,13.42
2023-05-10T07:42:39.303Z,13.48
2023-05-10T07:43:39.271Z,13.59
2023-05-10T07:44:39.260Z,13.67
2023-05-10T07:45:39.395Z,13.67
2023-05-10T07:46:39.224Z,13.71
2023-05-10T07:47:39.234Z,13.66
2023-05-10T07:48:39.201Z,13.64
2023-05-10T07:49:39.214Z,13.52
2023-05-10T07:50:39.182Z,13.46
2023-05-10T07:51:39.151Z,13.42
2023-05-10T07:52:39.146Z,13.41
2023-05-10T07:53:39.134Z,13.45
2023-05-10T07:54:39.121Z,13.46
2023-05-10T07:55:39.116Z,13.49
2023-05-10T07:56:39.099Z,13.52
2023-05-10T07:57:39.083Z,13.59
2023-05-10T07:58:39.089Z,13.57
2023-05-10T07:59:39.067Z,13.59
2023-05-10T08:00:39.038Z,13.59
2023-05-10T08:01:39.024Z,13.62
2023-05-10T08:02:39.139Z,13.64
2023-05-10T08:03:39.215Z,13.69
2023-05-10T08:04:39.120Z,13.71
2023-05-10T08:05:38.985Z,13.73
2023-05-10T08:06:39.043Z,13.73
2023-05-10T08:07:38.947Z,13.84
2023-05-10T08:08:38.933Z,13.84
2023-05-10T08:09:38.909Z,13.97
2023-05-10T08:10:38.908Z,13.95
2023-05-10T08:11:38.899Z,13.96
2023-05-10T08:12:38.880Z,13.97
2023-05-10T08:13:38.894Z,14.04
2023-05-10T08:14:38.838Z,14.06
2023-05-10T08:15:38.877Z,14.07
2023-05-10T08:16:38.805Z,14.00
2023-05-10T08:17:38.886Z,14.03
2023-05-10T08:18:38.851Z,14.04
2023-05-10T08:19:38.771Z,14.06
2023-05-10T08:20:38.750Z,14.10
2023-05-10T08:21:38.753Z,14.10
2023-05-10T08:22:38.772Z,13.99
2023-05-10T08:23:38.731Z,14.00
2023-05-10T08:24:38.704Z,14.00
2023-05-10T08:25:38.707Z,13.99
2023-05-10T08:26:38.691Z,14.02
2023-05-10T08:27:38.686Z,14.02
2023-05-10T08:28:38.707Z,14.00
2023-05-10T08:29:48.844Z,14.02
2023-05-10T08:30:39.626Z,13.99
2023-05-10T08:31:38.661Z,13.99
2023-05-10T08:32:38.663Z,13.91
2023-05-10T08:33:38.599Z,13.84
2023-05-10T08:34:38.578Z,13.81
2023-05-10T08:35:38.581Z,13.71
2023-05-10T08:36:38.669Z,13.67
2023-05-10T08:37:38.532Z,13.70
2023-05-10T08:38:38.515Z,13.71
2023-05-10T08:39:38.512Z,13.73
2023-05-10T08:40:38.489Z,13.75
2023-05-10T08:41:38.513Z,13.73
2023-05-10T08:42:38.475Z,13.75
2023-05-10T08:43:38.463Z,13.78
2023-05-10T08:44:38.435Z,13.79
2023-05-10T08:45:38.446Z,13.78
2023-05-10T08:46:38.478Z,13.79
2023-05-10T08:47:38.425Z,13.85
2023-05-10T08:48:38.418Z,13.92
2023-05-10T08:49:38.377Z,13.92
2023-05-10T08:50:38.394Z,14.02
2023-05-10T08:51:38.353Z,14.04
2023-05-10T08:52:38.333Z,14.07
2023-05-10T08:53:38.322Z,14.09
2023-05-10T08:54:38.303Z,14.07
2023-05-10T08:55:38.315Z,14.09
2023-05-10T08:56:38.291Z,14.09
2023-05-10T08:57:38.285Z,14.03
2023-05-10T08:58:38.251Z,14.07
2023-05-10T08:59:38.262Z,14.06
2023-05-10T09:00:38.383Z,14.14
2023-05-10T09:01:38.246Z,14.18
2023-05-10T09:02:38.264Z,14.17
2023-05-10T09:03:38.220Z,14.18
2023-05-10T09:04:38.261Z,14.22
2023-05-10T09:05:38.160Z,14.21
2023-05-10T09:06:38.175Z,14.22
2023-05-10T09:07:38.155Z,14.21
2023-05-10T09:08:38.131Z,14.21
2023-05-10T09:09:38.124Z,14.17
2023-05-10T09:10:38.094Z,14.21
2023-05-10T09:11:38.096Z,14.21
2023-05-10T09:12:38.086Z,14.21
2023-05-10T09:13:38.083Z,14.25
2023-05-10T09:14:38.053Z,14.29
2023-05-10T09:15:38.036Z,14.29
2023-05-10T09:16:38.148Z,14.29
2023-05-10T09:17:38.017Z,14.32
2023-05-10T09:18:38.016Z,14.36
2023-05-10T09:19:37.983Z,14.36
2023-05-10T09:20:37.972Z,14.45
2023-05-10T09:21:37.965Z,14.54
2023-05-10T09:22:37.942Z,14.55
2023-05-10T09:23:37.941Z,14.64
2023-05-10T09:24:37.919Z,14.70
2023-05-10T09:25:37.917Z,14.69
2023-05-10T09:26:37.961Z,14.65
2023-05-10T09:27:37.890Z,14.61
2023-05-10T09:28:37.899Z,14.58
2023-05-10T09:29:37.851Z,14.52
2023-05-10T09:30:37.878Z,14.50
2023-05-10T09:31:37.812Z,14.52
2023-05-10T09:32:37.896Z,14.55
2023-05-10T09:33:37.789Z,14.55
2023-05-10T09:34:37.774Z,14.58
2023-05-10T09:35:37.772Z,14.54
2023-05-10T09:36:37.797Z,14.57
2023-05-10T09:37:37.756Z,14.60
2023-05-10T09:38:37.728Z,14.64
2023-05-10T09:39:37.717Z,14.58
2023-05-10T09:40:37.711Z,14.61
2023-05-10T09:41:37.712Z,14.61
2023-05-10T09:42:37.687Z,14.57
2023-05-10T09:43:37.661Z,14.60
2023-05-10T09:44:37.664Z,14.58
2023-05-10T09:45:38.931Z,14.55
2023-05-10T09:46:37.694Z,14.47
2023-05-10T09:47:37.698Z,14.47
2023-05-10T09:48:37.590Z,14.46
2023-05-10T09:49:37.574Z,14.51
2023-05-10T09:50:37.593Z,14.58
2023-05-10T09:51:37.654Z,14.60
2023-05-10T09:52:37.529Z,14.62
2023-05-10T09:53:37.560Z,14.62
2023-05-10T09:54:37.573Z,14.73
2023-05-10T09:55:37.507Z,14.73
2023-05-10T09:56:37.539Z,14.78
2023-05-10T09:57:37.482Z,14.80
2023-05-10T09:58:37.462Z,14.83
2023-05-10T09:59:37.443Z,14.83
2023-05-10T10:00:37.446Z,14.77
2023-05-10T10:01:37.448Z,14.80
2023-05-10T10:02:37.424Z,14.84
2023-05-10T10:03:37.446Z,14.89
2023-05-10T10:04:37.409Z,14.96
2023-05-10T10:05:37.376Z,15.01
2023-05-10T10:06:37.373Z,15.07
2023-05-10T10:07:37.349Z,15.19
2023-05-10T10:08:37.331Z,15.29
2023-05-10T10:09:37.339Z,15.36
2023-05-10T10:10:37.305Z,15.25
2023-05-10T10:11:37.302Z,15.21
2023-05-10T10:12:37.266Z,15.21
2023-05-10T10:13:37.289Z,15.31
2023-05-10T10:14:37.260Z,15.35
2023-05-10T10:15:37.306Z,15.41
2023-05-10T10:16:41.462Z,15.43
2023-05-10T10:17:38.263Z,15.41
2023-05-10T10:18:37.257Z,15.38
2023-05-10T10:19:37.630Z,15.44
2023-05-10T10:20:37.168Z,15.39
2023-05-10T10:21:37.169Z,15.46
2023-05-10T10:22:37.148Z,15.53
2023-05-10T10:23:37.237Z,15.39
2023-05-10T10:24:37.170Z,15.31
2023-05-10T10:25:37.109Z,15.32
2023-05-10T10:26:37.115Z,15.25
2023-05-10T10:27:37.101Z,15.16
2023-05-10T10:28:37.084Z,15.16
2023-05-10T10:29:37.042Z,15.17
2023-05-10T10:30:37.050Z,15.09
2023-05-10T10:31:37.056Z,14.99
2023-05-10T10:32:37.081Z,14.96
2023-05-10T10:33:37.122Z,14.81
2023-05-10T10:34:36.978Z,14.68
2023-05-10T10:35:36.963Z,14.70
2023-05-10T10:36:36.956Z,14.68
2023-05-10T10:37:36.961Z,14.72
2023-05-10T10:38:36.926Z,14.77
2023-05-10T10:39:36.913Z,14.81
2023-05-10T10:40:36.909Z,14.84
2023-05-10T10:41:36.902Z,14.80
2023-05-10T10:42:36.884Z,14.81
2023-05-10T10:43:36.862Z,14.77
2023-05-10T10:44:36.862Z,14.77
2023-05-10T10:45:36.837Z,14.83
2023-05-10T10:46:36.899Z,14.91
2023-05-10T10:47:36.864Z,14.83
2023-05-10T10:48:36.949Z,14.88
2023-05-10T10:49:36.772Z,14.88
2023-05-10T10:50:36.773Z,14.78
2023-05-10T10:51:36.765Z,14.81
2023-05-10T10:52:36.745Z,14.86
2023-05-10T10:53:36.735Z,14.80
2023-05-10T10:54:36.720Z,14.72
2023-05-10T10:55:36.701Z,14.69
2023-05-10T10:56:37.219Z,14.73
2023-05-10T10:57:36.678Z,14.83
2023-05-10T10:58:36.666Z,14.89
2023-05-10T10:59:36.668Z,14.91
2023-05-10T11:00:36.699Z,15.01
2023-05-10T11:01:36.854Z,15.10
2023-05-10T11:02:36.626Z,15.10
2023-05-10T11:03:36.584Z,15.20
2023-05-10T11:04:36.721Z,15.21
2023-05-10T11:05:36.619Z,15.38
2023-05-10T11:06:36.738Z,15.36
2023-05-10T11:07:36.567Z,15.50
2023-05-10T11:08:38.255Z,15.51
2023-05-10T11:09:36.499Z,15.47
2023-05-10T11:10:36.542Z,15.60
2023-05-10T11:11:36.507Z,15.51
2023-05-10T11:12:36.478Z,15.47
2023-05-10T11:13:36.458Z,15.46
2023-05-10T11:14:36.459Z,15.51
2023-05-10T11:15:36.457Z,15.44
2023-05-10T11:16:36.470Z,15.49
2023-05-10T11:17:42.695Z,15.53
2023-05-10T11:18:37.443Z,15.56
2023-05-10T11:19:36.383Z,15.57
2023-05-10T11:20:36.370Z,15.49
2023-05-10T11:21:36.372Z,15.39
2023-05-10T11:22:36.346Z,15.46
2023-05-10T11:23:36.318Z,15.50
2023-05-10T11:24:36.328Z,15.60
2023-05-10T11:25:36.334Z,15.71
2023-05-10T11:26:36.291Z,15.72
2023-05-10T11:27:43.781Z,15.74
2023-05-10T11:28:44.969Z,15.53
2023-05-10T11:29:43.784Z,15.47
2023-05-10T11:30:36.260Z,15.51
2023-05-10T11:31:36.211Z,15.54
2023-05-10T11:32:36.228Z,15.62
2023-05-10T11:33:36.222Z,15.71
2023-05-10T11:34:36.181Z,15.75
2023-05-10T11:35:36.178Z,15.76
2023-05-10T11:36:36.296Z,15.89
2023-05-10T11:37:36.148Z,15.82
2023-05-10T11:38:36.268Z,15.86
2023-05-10T11:39:36.111Z,15.74
2023-05-10T11:40:36.108Z,15.76
2023-05-10T11:41:36.089Z,15.74
2023-05-10T11:42:36.091Z,15.90
2023-05-10T11:43:36.062Z,15.75
2023-05-10T11:44:36.056Z,15.72
2023-05-10T11:45:36.045Z,15.82
2023-05-10T11:46:36.048Z,15.60
2023-05-10T11:47:36.059Z,15.62
2023-05-10T11:48:36.016Z,15.65
2023-05-10T11:49:36.964Z,15.65
2023-05-10T11:50:35.979Z,15.67
2023-05-10T11:51:36.000Z,15.68
2023-05-10T11:52:35.956Z,15.69
2023-05-10T11:53:35.940Z,15.68
2023-05-10T11:54:36.006Z,15.71
2023-05-10T11:55:35.913Z,15.76
2023-05-10T11:56:35.930Z,15.78
2023-05-10T11:57:35.895Z,15.84
2023-05-10T11:58:35.883Z,15.93
2023-05-10T11:59:35.853Z,16.00
2023-05-10T12:00:35.836Z,15.89
2023-05-10T12:01:35.844Z,15.90
2023-05-10T12:02:35.895Z,15.96
2023-05-10T12:03:35.917Z,15.94
2023-05-10T12:04:35.850Z,16.00
2023-05-10T12:05:35.763Z,16.01
2023-05-10T12:06:35.772Z,16.20
2023-05-10T12:07:35.743Z,16.28
2023-05-10T12:08:35.747Z,16.49
2023-05-10T12:09:43.862Z,16.64
2023-05-10T12:10:36.743Z,16.78
2023-05-10T12:11:35.708Z,16.86
2023-05-10T12:12:35.680Z,17.03
2023-05-10T12:13:35.665Z,17.01
2023-05-10T12:14:35.641Z,16.70
2023-05-10T12:15:35.636Z,16.73
2023-05-10T12:16:35.638Z,16.88
2023-05-10T12:17:35.629Z,17.00
2023-05-10T12:18:35.635Z,17.07
2023-05-10T12:19:35.574Z,17.21
2023-05-10T12:20:35.576Z,17.33
2023-05-10T12:21:35.547Z,17.04
2023-05-10T12:22:35.558Z,17.03
2023-05-10T12:23:35.536Z,16.91
2023-05-10T12:24:35.517Z,16.68
2023-05-10T12:25:35.516Z,16.52
2023-05-10T12:26:35.506Z,16.63
2023-05-10T12:27:35.488Z,16.73
2023-05-10T12:28:35.526Z,16.88
2023-05-10T12:29:35.462Z,16.78
2023-05-10T12:30:35.482Z,16.71
2023-05-10T12:31:35.483Z,16.81
2023-05-10T12:32:35.441Z,16.94
2023-05-10T12:33:35.407Z,17.08
2023-05-10T12:34:35.454Z,17.14
2023-05-10T12:35:35.394Z,17.25
2023-05-10T12:36:35.376Z,17.51
2023-05-10T12:37:35.348Z,17.72
2023-05-10T12:38:35.371Z,17.87
2023-05-10T12:39:35.409Z,17.95
2023-05-10T12:40:35.338Z,18.11
2023-05-10T12:41:35.339Z,18.26
2023-05-10T12:42:35.285Z,18.37
2023-05-10T12:43:35.301Z,18.45
2023-05-10T12:44:35.269Z,18.65
2023-05-10T12:45:35.297Z,18.81
2023-05-10T12:46:35.258Z,18.95
2023-05-10T12:47:35.254Z,19.10
2023-05-10T12:48:35.211Z,19.06
2023-05-10T12:49:35.330Z,19.13
2023-05-10T12:50:35.212Z,18.95
2023-05-10T12:51:35.218Z,19.04
2023-05-10T12:52:35.210Z,18.78